Terminal Aerodrome Forecast
Issued by NWS North Platte, NE

Home | Current Version | Previous Version | Graphics & Text | Print | Product List | Glossary On
Versions: 1 2 3 4 5 6 7 8 9 10 11 12 13
980
FTUS43 KLBF 081142
TAFVTN
TAF
KVTN 081142Z 0812/0912 32013G18KT P6SM BKN100
     FM081800 31016G24KT P6SM BKN200
     FM082300 32013G20KT P6SM BKN200
     FM090600 32012KT P6SM BKN200=

USA.gov is the U.S. government's official web portal to all federal, state and local government web resources and services.